Terminal Aerodrome Forecast
Issued by NWS

Home | Current Version | Previous Version | Text Only | Print | Product List | Glossary On
Versions: 1 2 3 4 5 6 7 8 9 10 11 12 13 14 15 16 17 18 19 20 21 22 23 24 25 26 27 28 29 30
535
FTUS44 KLIX 032348
TAFHDC
TAF
KHDC 032348Z 0400/0424 10012KT P6SM -RA OVC025
     FM040300 10010KT P6SM OVC020
      TEMPO 0403/0407 5SM -RA BR OVC007
     FM040900 10006KT 3SM RA BR OVC008
      TEMPO 0409/0413 2SM +SHRA OVC004
     FM041300 VRB03KT 2SM SHRA BR OVC006
     FM041900 24005KT 4SM -RA OVC010=

USA.gov is the U.S. government's official web portal to all federal, state and local government web resources and services.